createdAt,value
2018-03-24T00:02:02.721Z,20.03
2018-03-24T00:04:30.195Z,16.30
2018-03-24T00:06:58.439Z,19.13
2018-03-24T00:09:26.674Z,16.03
2018-03-24T00:11:54.162Z,15.57
2018-03-24T00:14:21.625Z,18.03
2018-03-24T00:16:49.131Z,17.27
2018-03-24T00:19:17.372Z,20.83
2018-03-24T00:21:44.879Z,16.67
2018-03-24T00:24:12.385Z,18.53
2018-03-24T00:26:39.862Z,17.43
2018-03-24T00:29:07.345Z,18.40
2018-03-24T00:31:34.834Z,20.27
2018-03-24T00:34:02.324Z,16.77
2018-03-24T00:36:29.804Z,19.97
2018-03-24T00:38:57.298Z,19.17
2018-03-24T00:41:25.537Z,16.60
2018-03-24T00:43:53.033Z,17.13
2018-03-24T00:46:20.523Z,15.60
2018-03-24T00:48:48.782Z,17.33
2018-03-24T00:51:16.255Z,17.23
2018-03-24T00:53:43.762Z,18.37
2018-03-24T00:56:12.068Z,14.37
2018-03-24T00:58:39.561Z,14.97
2018-03-24T01:01:07.029Z,17.07
2018-03-24T01:03:34.520Z,15.40
2018-03-24T01:06:01.993Z,14.73
2018-03-24T01:08:29.505Z,15.50
2018-03-24T01:10:57.752Z,15.83
2018-03-24T01:13:25.225Z,17.13
2018-03-24T01:15:52.709Z,14.30
2018-03-24T01:18:20.194Z,15.27
2018-03-24T01:20:47.690Z,15.87
2018-03-24T01:23:15.169Z,17.67
2018-03-24T01:25:42.677Z,17.50
2018-03-24T01:28:10.149Z,12.97
2018-03-24T01:30:37.642Z,15.03
2018-03-24T01:33:05.105Z,15.23
2018-03-24T01:35:32.596Z,16.13
2018-03-24T01:38:00.832Z,17.23
2018-03-24T01:40:28.375Z,18.77
2018-03-24T01:42:56.627Z,15.07
2018-03-24T01:45:24.130Z,14.00
2018-03-24T01:47:52.356Z,15.97
2018-03-24T01:50:19.820Z,16.07
2018-03-24T01:52:47.301Z,19.40
2018-03-24T01:55:14.789Z,16.40
2018-03-24T01:57:42.330Z,17.10
2018-03-24T02:00:09.866Z,18.67
2018-03-24T02:02:37.375Z,16.77
2018-03-24T02:05:08.713Z,14.30
2018-03-24T02:07:36.263Z,18.47
2018-03-24T02:10:03.840Z,14.00
2018-03-24T02:12:31.273Z,16.33
2018-03-24T02:14:58.740Z,17.67
2018-03-24T02:17:26.251Z,18.40
2018-03-24T02:19:53.717Z,16.03
2018-03-24T02:22:21.193Z,17.33
2018-03-24T02:25:06.485Z,17.57
2018-03-24T02:27:33.964Z,16.13
2018-03-24T02:30:02.193Z,17.60
2018-03-24T02:32:29.670Z,17.10
2018-03-24T02:34:57.154Z,19.50
2018-03-24T02:37:24.637Z,17.47
2018-03-24T02:39:52.181Z,15.60
2018-03-24T02:42:19.664Z,19.47
2018-03-24T02:44:47.159Z,19.00
2018-03-24T02:47:14.642Z,18.20
2018-03-24T02:49:42.131Z,17.80
2018-03-24T02:52:10.440Z,22.67
2018-03-24T02:54:37.989Z,24.73
2018-03-24T02:57:06.218Z,23.10
2018-03-24T02:59:33.703Z,22.03
2018-03-24T03:02:01.191Z,19.83
2018-03-24T03:04:28.688Z,20.00
2018-03-24T03:06:56.920Z,18.80
2018-03-24T03:09:24.414Z,21.90
2018-03-24T03:11:51.930Z,17.77
2018-03-24T03:14:20.174Z,16.40
2018-03-24T03:16:47.639Z,18.40
2018-03-24T03:19:15.125Z,17.07
2018-03-24T03:21:53.213Z,20.60
2018-03-24T03:24:20.703Z,18.83
2018-03-24T03:26:48.164Z,19.13
2018-03-24T03:29:15.727Z,19.30
2018-03-24T03:31:43.193Z,18.73
2018-03-24T03:34:10.665Z,19.03
2018-03-24T03:36:38.143Z,16.63
2018-03-24T03:39:05.626Z,19.83
2018-03-24T03:41:33.094Z,16.87
2018-03-24T03:44:00.566Z,18.90
2018-03-24T03:46:28.045Z,21.30
2018-03-24T03:48:55.511Z,21.00
2018-03-24T03:51:23.042Z,18.90
2018-03-24T03:53:50.513Z,18.93
2018-03-24T03:56:17.993Z,23.23
2018-03-24T03:58:45.474Z,25.67
2018-03-24T04:01:12.986Z,21.87
2018-03-24T04:03:40.447Z,24.07
2018-03-24T04:06:07.935Z,23.33
2018-03-24T04:08:35.392Z,24.57
2018-03-24T04:11:02.879Z,19.97
2018-03-24T04:13:30.351Z,20.63
2018-03-24T04:15:57.833Z,20.23
2018-03-24T04:18:26.065Z,21.80
2018-03-24T04:20:53.545Z,17.03
2018-03-24T04:23:21.010Z,21.10
2018-03-24T04:25:48.505Z,19.70
2018-03-24T04:28:15.985Z,23.27
2018-03-24T04:30:43.506Z,19.77
2018-03-24T04:33:10.997Z,18.43
2018-03-24T04:35:38.471Z,19.30
2018-03-24T04:38:05.955Z,17.97
2018-03-24T04:40:33.412Z,18.43
2018-03-24T04:43:00.895Z,16.23
2018-03-24T04:45:28.365Z,15.57
2018-03-24T04:47:55.846Z,17.63
2018-03-24T04:50:23.300Z,14.83
2018-03-24T04:52:50.790Z,14.83
2018-03-24T04:55:18.281Z,17.37
2018-03-24T04:57:46.552Z,15.67
2018-03-24T05:00:14.018Z,15.47
2018-03-24T05:02:41.475Z,11.93
2018-03-24T05:05:09.729Z,14.03
2018-03-24T05:07:37.297Z,14.03
2018-03-24T05:10:05.229Z,13.57
2018-03-24T05:12:32.701Z,14.60
2018-03-24T05:15:00.190Z,13.93
2018-03-24T05:17:27.658Z,15.67
2018-03-24T05:19:55.146Z,13.00
2018-03-24T05:22:23.378Z,14.27
2018-03-24T05:24:50.869Z,16.47
2018-03-24T05:27:18.332Z,14.10
2018-03-24T05:29:45.814Z,15.37
2018-03-24T05:32:13.284Z,19.33
2018-03-24T05:34:41.526Z,14.77
2018-03-24T05:37:08.989Z,16.60
2018-03-24T05:39:37.238Z,14.67
2018-03-24T05:42:05.478Z,14.40
2018-03-24T05:44:32.954Z,17.90
2018-03-24T05:47:00.449Z,16.73
2018-03-24T05:49:27.929Z,16.70
2018-03-24T05:51:55.407Z,15.00
2018-03-24T05:54:22.897Z,19.27
2018-03-24T05:56:51.201Z,15.17
2018-03-24T05:59:19.428Z,13.60
2018-03-24T06:01:46.929Z,17.17
2018-03-24T06:04:14.399Z,18.10
2018-03-24T06:06:41.959Z,18.43
2018-03-24T06:09:09.432Z,18.53
2018-03-24T06:11:36.909Z,18.30
2018-03-24T06:14:04.383Z,20.63
2018-03-24T06:16:31.902Z,22.47
2018-03-24T06:19:00.126Z,18.70
2018-03-24T06:21:27.609Z,22.23
2018-03-24T06:23:55.192Z,24.57
2018-03-24T06:26:23.584Z,20.67
2018-03-24T06:28:51.050Z,19.47
2018-03-24T06:31:18.557Z,21.63
2018-03-24T06:33:46.053Z,22.17
2018-03-24T06:36:14.113Z,27.03
2018-03-24T06:38:41.583Z,23.93
2018-03-24T06:43:24.582Z,16.23
2018-03-24T06:45:52.065Z,14.77
2018-03-24T06:48:19.546Z,15.63
2018-03-24T06:50:47.014Z,15.17
2018-03-24T06:53:14.506Z,11.57
2018-03-24T06:55:41.978Z,13.37
2018-03-24T06:58:09.459Z,12.17
2018-03-24T07:00:36.958Z,13.67
2018-03-24T07:03:05.198Z,10.60
2018-03-24T07:05:32.722Z,13.53
2018-03-24T07:08:00.969Z,13.07
2018-03-24T07:10:28.442Z,10.57
2018-03-24T07:12:55.920Z,11.37
2018-03-24T07:15:23.400Z,12.00
2018-03-24T07:17:50.878Z,10.83
2018-03-24T07:20:19.104Z,11.30
2018-03-24T07:22:46.602Z,9.40
2018-03-24T07:25:14.104Z,11.23
2018-03-24T07:27:42.387Z,10.77
2018-03-24T07:30:10.625Z,8.90
2018-03-24T07:32:38.116Z,9.80
2018-03-24T07:35:05.600Z,14.23
2018-03-24T07:37:33.110Z,8.73
2018-03-24T07:40:00.577Z,8.97
2018-03-24T07:42:28.835Z,12.17
2018-03-24T07:44:56.314Z,11.53
2018-03-24T07:47:23.890Z,24.27
2018-03-24T07:49:51.385Z,11.27
2018-03-24T07:52:19.609Z,9.87
2018-03-24T07:54:47.254Z,13.33
2018-03-24T07:57:15.502Z,10.87
2018-03-24T07:59:45.821Z,11.13
2018-03-24T08:02:13.408Z,10.17
2018-03-24T08:04:41.789Z,11.07
2018-03-24T08:07:09.315Z,13.27
2018-03-24T08:09:37.664Z,10.87
2018-03-24T08:12:05.101Z,10.93
2018-03-24T08:14:32.608Z,10.67
2018-03-24T08:17:00.088Z,11.57
2018-03-24T08:19:27.574Z,9.63
2018-03-24T08:21:56.377Z,10.80
2018-03-24T08:24:26.396Z,11.90
2018-03-24T08:26:54.657Z,10.17
2018-03-24T08:29:23.724Z,11.83
2018-03-24T08:31:51.987Z,11.10
2018-03-24T08:34:19.462Z,11.67
2018-03-24T08:36:46.949Z,12.80
2018-03-24T08:39:15.256Z,11.20
2018-03-24T08:41:43.151Z,10.37
2018-03-24T08:44:10.700Z,11.63
2018-03-24T08:46:38.319Z,11.43
2018-03-24T08:49:05.832Z,10.83
2018-03-24T08:51:34.085Z,10.97
2018-03-24T08:54:01.550Z,12.03
2018-03-24T08:56:29.046Z,10.90
2018-03-24T08:58:56.525Z,12.87
2018-03-24T09:01:24.780Z,11.13
2018-03-24T09:03:52.245Z,11.20
2018-03-24T09:06:19.709Z,10.30
2018-03-24T09:08:47.229Z,11.77
2018-03-24T09:11:14.752Z,12.10
2018-03-24T09:13:42.266Z,11.33
2018-03-24T09:16:09.745Z,11.43
2018-03-24T09:18:38.018Z,11.37
2018-03-24T09:21:05.507Z,11.97
2018-03-24T09:23:33.829Z,11.80
2018-03-24T09:26:01.301Z,11.53
2018-03-24T09:28:28.864Z,12.67
2018-03-24T09:30:56.452Z,10.97
2018-03-24T09:33:23.986Z,11.40
2018-03-24T09:35:51.458Z,11.07
2018-03-24T09:38:19.041Z,11.37
2018-03-24T09:40:47.272Z,10.60
2018-03-24T09:43:14.750Z,10.27
2018-03-24T09:45:42.241Z,10.50
2018-03-24T09:48:09.722Z,10.70
2018-03-24T09:50:37.194Z,10.33
2018-03-24T09:53:04.658Z,9.53
2018-03-24T09:55:32.939Z,12.00
2018-03-24T09:58:00.425Z,9.23
2018-03-24T10:00:27.942Z,8.33
2018-03-24T10:02:55.443Z,9.60
2018-03-24T10:05:22.922Z,10.03
2018-03-24T10:07:50.398Z,9.50
2018-03-24T10:10:17.951Z,8.23
2018-03-24T10:12:45.425Z,8.27
2018-03-24T10:15:12.977Z,8.33
2018-03-24T10:17:40.459Z,8.97
2018-03-24T10:20:07.981Z,8.50
2018-03-24T10:22:47.392Z,8.20
2018-03-24T10:25:14.877Z,7.57
2018-03-24T10:27:42.341Z,6.83
2018-03-24T10:30:09.894Z,6.43
2018-03-24T10:32:37.367Z,7.70
2018-03-24T10:35:08.455Z,6.50
2018-03-24T10:37:41.681Z,7.30
2018-03-24T10:40:09.994Z,6.60
2018-03-24T10:42:37.490Z,7.10
2018-03-24T10:45:04.978Z,7.35
2018-03-24T10:47:32.450Z,5.83
2018-03-24T10:49:59.926Z,7.03
2018-03-24T10:52:27.448Z,6.27
2018-03-24T10:54:54.900Z,5.83
2018-03-24T10:57:22.397Z,7.73
2018-03-24T10:59:54.728Z,4.67
2018-03-24T11:02:22.385Z,4.53
2018-03-24T11:04:49.853Z,5.43
2018-03-24T11:07:17.348Z,4.68
2018-03-24T11:09:44.820Z,5.62
2018-03-24T11:12:12.318Z,5.00
2018-03-24T11:14:39.893Z,5.28
2018-03-24T11:17:08.208Z,5.35
2018-03-24T11:19:35.769Z,4.97
2018-03-24T11:22:04.134Z,4.75
2018-03-24T11:24:32.408Z,4.93
2018-03-24T11:26:59.943Z,5.03
2018-03-24T11:29:27.422Z,4.77
2018-03-24T11:31:54.928Z,4.23
2018-03-24T11:34:23.141Z,3.85
2018-03-24T11:36:50.621Z,4.30
2018-03-24T11:39:18.891Z,4.57
2018-03-24T11:41:46.376Z,4.87
2018-03-24T11:44:14.613Z,4.70
2018-03-24T11:46:42.093Z,4.43
2018-03-24T11:49:09.549Z,4.30
2018-03-24T11:51:37.032Z,4.07
2018-03-24T11:54:04.518Z,4.23
2018-03-24T11:56:31.997Z,4.40
2018-03-24T11:58:59.536Z,5.00
2018-03-24T12:01:27.736Z,5.53
2018-03-24T12:03:55.227Z,4.30
2018-03-24T12:06:22.708Z,4.20
2018-03-24T12:08:50.324Z,3.73
2018-03-24T12:11:17.802Z,3.90
2018-03-24T12:13:45.286Z,3.87
2018-03-24T12:16:12.759Z,3.43
2018-03-24T12:18:40.241Z,4.00
2018-03-24T12:21:07.709Z,4.10
2018-03-24T12:23:35.262Z,4.47
2018-03-24T12:26:02.842Z,5.03
2018-03-24T12:28:30.338Z,4.03
2018-03-24T12:30:57.811Z,4.40
2018-03-24T12:33:25.293Z,4.13
2018-03-24T12:35:52.774Z,3.60
2018-03-24T12:38:21.033Z,4.03
2018-03-24T12:40:48.498Z,3.93
2018-03-24T12:43:16.214Z,4.55
2018-03-24T12:45:43.678Z,4.90
2018-03-24T12:48:11.181Z,4.73
2018-03-24T12:50:38.682Z,4.97
2018-03-24T12:53:06.144Z,4.33
2018-03-24T12:55:33.646Z,4.62
2018-03-24T12:58:01.105Z,4.17
2018-03-24T13:00:28.679Z,3.67
2018-03-24T13:02:56.120Z,4.17
2018-03-24T13:05:23.619Z,4.20
2018-03-24T13:07:51.086Z,3.62
2018-03-24T13:10:18.628Z,3.58
2018-03-24T13:12:46.105Z,3.70
2018-03-24T13:15:13.689Z,3.50
2018-03-24T13:17:41.201Z,4.10
2018-03-24T13:20:08.715Z,3.50
2018-03-24T13:22:36.204Z,3.23
2018-03-24T13:25:03.694Z,2.85
2018-03-24T13:27:31.157Z,3.80
2018-03-24T13:29:59.405Z,3.53
2018-03-24T13:32:26.994Z,3.62
2018-03-24T13:34:54.533Z,3.22
2018-03-24T13:37:22.006Z,4.05
2018-03-24T13:39:50.226Z,4.30
2018-03-24T13:42:17.722Z,4.60
2018-03-24T13:44:45.189Z,3.70
2018-03-24T13:47:12.679Z,3.97
2018-03-24T13:49:40.152Z,4.05
2018-03-24T13:52:07.639Z,4.30
2018-03-24T13:54:35.106Z,4.10
2018-03-24T13:57:02.585Z,4.37
2018-03-24T13:59:30.819Z,4.50
2018-03-24T14:01:58.319Z,3.93
2018-03-24T14:04:25.819Z,4.37
2018-03-24T14:06:54.070Z,4.57
2018-03-24T14:09:21.543Z,4.53
2018-03-24T14:11:49.029Z,3.97
2018-03-24T14:14:16.500Z,4.33
2018-03-24T14:16:43.985Z,3.87
2018-03-24T14:19:11.466Z,4.37
2018-03-24T14:21:39.738Z,4.13
2018-03-24T14:24:07.981Z,4.13
2018-03-24T14:26:35.501Z,3.93
2018-03-24T14:29:02.995Z,4.10
2018-03-24T14:31:31.222Z,4.50
2018-03-24T14:33:58.708Z,3.57
2018-03-24T14:36:26.177Z,4.07
2018-03-24T14:38:53.673Z,4.30
2018-03-24T14:41:21.139Z,4.47
2018-03-24T14:43:48.737Z,4.57
2018-03-24T14:46:16.961Z,4.43
2018-03-24T14:48:44.455Z,4.83
2018-03-24T14:51:11.928Z,4.43
2018-03-24T14:53:39.458Z,4.50
2018-03-24T14:56:06.928Z,4.93
2018-03-24T14:58:34.419Z,4.67
2018-03-24T15:01:01.894Z,5.03
2018-03-24T15:03:30.201Z,4.57
2018-03-24T15:05:57.661Z,4.07
2018-03-24T15:08:25.146Z,5.03
2018-03-24T15:10:52.618Z,4.60
2018-03-24T15:13:20.099Z,4.73
2018-03-24T15:15:47.579Z,5.37
2018-03-24T15:18:15.075Z,5.53
2018-03-24T15:20:43.307Z,4.97
2018-03-24T15:23:10.766Z,4.63
2018-03-24T15:25:38.261Z,5.13
2018-03-24T15:28:05.725Z,5.10
2018-03-24T15:30:45.114Z,4.70
2018-03-24T15:33:24.486Z,5.90
2018-03-24T15:36:04.497Z,5.30
2018-03-24T15:38:32.769Z,4.57
2018-03-24T15:41:00.253Z,5.30
2018-03-24T15:43:27.763Z,5.87
2018-03-24T15:45:55.251Z,4.60
2018-03-24T15:48:23.498Z,4.30
2018-03-24T15:50:50.994Z,4.83
2018-03-24T15:53:19.577Z,5.33
2018-03-24T15:55:47.090Z,5.53
2018-03-24T15:58:14.595Z,6.10
2018-03-24T16:00:42.086Z,5.00
2018-03-24T16:03:09.551Z,5.07
2018-03-24T16:05:37.046Z,5.07
2018-03-24T16:08:04.502Z,5.47
2018-03-24T16:10:31.997Z,5.37
2018-03-24T16:13:00.228Z,5.30
2018-03-24T16:15:27.721Z,5.43
2018-03-24T16:17:55.182Z,4.60
2018-03-24T16:20:22.679Z,5.33
2018-03-24T16:22:50.154Z,6.73
2018-03-24T16:25:17.637Z,4.87
2018-03-24T16:27:45.948Z,4.47
2018-03-24T16:30:13.453Z,5.40
2018-03-24T16:32:40.932Z,6.43
2018-03-24T16:35:08.429Z,5.13
2018-03-24T16:37:35.900Z,4.57
2018-03-24T16:40:03.423Z,4.67
2018-03-24T16:42:30.961Z,4.93
2018-03-24T16:44:59.260Z,4.97
2018-03-24T16:47:27.501Z,5.57
2018-03-24T16:49:54.987Z,5.67
2018-03-24T16:52:22.458Z,7.53
2018-03-24T16:54:49.990Z,7.80
2018-03-24T16:57:17.469Z,5.30
2018-03-24T16:59:44.979Z,4.43
2018-03-24T17:02:12.554Z,4.37
2018-03-24T17:04:40.823Z,4.67
2018-03-24T17:07:08.331Z,5.00
2018-03-24T17:09:36.570Z,4.87
2018-03-24T17:12:04.057Z,4.13
2018-03-24T17:14:31.544Z,4.97
2018-03-24T17:16:59.056Z,4.57
2018-03-24T17:19:26.533Z,4.77
2018-03-24T17:21:54.025Z,4.70
2018-03-24T17:24:21.562Z,4.43
2018-03-24T17:26:49.126Z,3.87
2018-03-24T17:29:17.359Z,4.73
2018-03-24T17:31:44.852Z,4.37
2018-03-24T17:34:12.390Z,4.47
2018-03-24T17:36:39.914Z,4.67
2018-03-24T17:39:07.661Z,4.23
2018-03-24T17:41:35.153Z,4.20
2018-03-24T17:44:02.622Z,3.77
2018-03-24T17:46:30.114Z,5.47
2018-03-24T17:48:58.351Z,4.87
2018-03-24T17:51:25.850Z,5.33
2018-03-24T17:53:53.357Z,5.63
2018-03-24T17:56:20.838Z,6.50
2018-03-24T17:58:48.325Z,4.83
2018-03-24T18:01:15.803Z,4.07
2018-03-24T18:03:43.333Z,4.67
2018-03-24T18:06:11.686Z,4.37
2018-03-24T18:08:39.177Z,4.07
2018-03-24T18:11:06.649Z,4.40
2018-03-24T18:13:34.148Z,4.70
2018-03-24T18:16:02.389Z,4.47
2018-03-24T18:18:29.878Z,4.87
2018-03-24T18:20:57.367Z,4.47
2018-03-24T18:23:24.855Z,5.00
2018-03-24T18:25:53.089Z,4.80
2018-03-24T18:28:20.578Z,5.70
2018-03-24T18:30:48.043Z,5.10
2018-03-24T18:33:15.529Z,5.27
2018-03-24T18:35:43.783Z,5.30
2018-03-24T18:38:11.275Z,7.03
2018-03-24T18:40:38.917Z,5.00
2018-03-24T18:43:06.407Z,4.97
2018-03-24T18:45:33.879Z,4.70
2018-03-24T18:48:02.175Z,4.37
2018-03-24T18:50:29.637Z,5.50
2018-03-24T18:52:57.131Z,6.73
2018-03-24T18:55:24.631Z,5.17
2018-03-24T18:57:52.886Z,5.33
2018-03-24T19:00:20.425Z,4.77
2018-03-24T19:02:47.872Z,4.90
2018-03-24T19:05:15.342Z,4.37
2018-03-24T19:07:42.828Z,4.50
2018-03-24T19:10:10.376Z,5.13
2018-03-24T19:12:37.850Z,6.63
2018-03-24T19:15:06.158Z,4.57
2018-03-24T19:17:33.583Z,4.50
2018-03-24T19:20:01.089Z,5.40
2018-03-24T19:22:28.541Z,5.07
2018-03-24T19:24:56.030Z,4.90
2018-03-24T19:27:23.500Z,4.57
2018-03-24T19:29:51.000Z,4.67
2018-03-24T19:32:18.470Z,5.57
2018-03-24T19:34:45.968Z,4.80
2018-03-24T19:37:13.449Z,4.73
2018-03-24T19:39:40.953Z,5.17
2018-03-24T19:42:08.438Z,4.80
2018-03-24T19:44:35.925Z,4.13
2018-03-24T19:47:03.409Z,4.43
2018-03-24T19:49:30.939Z,5.20
2018-03-24T19:51:58.406Z,4.57
2018-03-24T19:54:25.894Z,4.97
2018-03-24T19:56:53.367Z,5.53
2018-03-24T19:59:21.061Z,4.40
2018-03-24T20:01:48.555Z,4.87
2018-03-24T20:04:16.047Z,4.53
2018-03-24T20:06:43.514Z,4.67
2018-03-24T20:09:11.055Z,4.90
2018-03-24T20:11:38.533Z,4.77
2018-03-24T20:14:06.014Z,5.17
2018-03-24T20:16:33.501Z,5.47
2018-03-24T20:19:00.957Z,6.77
2018-03-24T20:21:28.437Z,5.43
2018-03-24T20:23:55.914Z,6.47
2018-03-24T20:26:23.421Z,6.10
2018-03-24T20:28:51.042Z,4.80
2018-03-24T20:31:18.557Z,5.53
2018-03-24T20:33:46.026Z,7.47
2018-03-24T20:36:13.513Z,8.87
2018-03-24T20:38:40.990Z,6.03
2018-03-24T20:41:08.497Z,7.97
2018-03-24T20:43:36.029Z,7.70
2018-03-24T20:46:03.526Z,8.10
2018-03-24T20:48:30.987Z,8.63
2018-03-24T20:50:58.621Z,7.17
2018-03-24T20:53:26.869Z,5.73
2018-03-24T20:55:54.341Z,6.77
2018-03-24T20:58:21.849Z,4.70
2018-03-24T21:00:50.091Z,5.20
2018-03-24T21:03:18.429Z,6.67
2018-03-24T21:05:46.666Z,5.40
2018-03-24T21:08:14.169Z,5.37
2018-03-24T21:10:41.642Z,4.77
2018-03-24T21:13:09.194Z,5.23
2018-03-24T21:15:36.625Z,5.73
2018-03-24T21:18:04.138Z,5.20
2018-03-24T21:20:31.611Z,5.33
2018-03-24T21:22:59.104Z,5.73
2018-03-24T21:25:26.588Z,6.43
2018-03-24T21:27:54.839Z,7.67
2018-03-24T21:30:22.322Z,7.93
2018-03-24T21:32:50.614Z,8.47
2018-03-24T21:35:18.098Z,6.60
2018-03-24T21:37:45.617Z,5.40
2018-03-24T21:40:13.140Z,6.70
2018-03-24T21:42:40.798Z,6.10
2018-03-24T21:45:08.285Z,5.90
2018-03-24T21:47:35.758Z,6.60
2018-03-24T21:50:03.243Z,4.27
2018-03-24T21:52:31.481Z,4.97
2018-03-24T21:54:58.961Z,4.87
2018-03-24T21:57:26.490Z,6.23
2018-03-24T21:59:54.363Z,5.20
2018-03-24T22:02:22.598Z,5.43
2018-03-24T22:04:50.119Z,6.10
2018-03-24T22:07:18.614Z,5.50
2018-03-24T22:09:46.857Z,5.97
2018-03-24T22:12:14.506Z,7.37
2018-03-24T22:14:41.993Z,6.93
2018-03-24T22:17:10.233Z,4.80
2018-03-24T22:19:38.505Z,6.50
2018-03-24T22:22:06.015Z,5.63
2018-03-24T22:24:33.521Z,5.57
2018-03-24T22:27:01.056Z,19.97
2018-03-24T22:29:28.542Z,7.50
2018-03-24T22:31:56.131Z,6.23
2018-03-24T22:34:23.622Z,6.40
2018-03-24T22:36:51.117Z,5.90
2018-03-24T22:39:18.689Z,6.00
2018-03-24T22:41:46.221Z,5.47
2018-03-24T22:44:14.517Z,4.30
2018-03-24T22:46:42.008Z,4.83
2018-03-24T22:49:09.479Z,6.47
2018-03-24T22:51:36.968Z,7.67
2018-03-24T22:54:04.435Z,4.17
2018-03-24T22:56:31.940Z,6.43
2018-03-24T22:58:59.418Z,7.80
2018-03-24T23:01:26.937Z,5.63
2018-03-24T23:03:54.436Z,7.60
2018-03-24T23:06:22.661Z,6.87
2018-03-24T23:08:50.222Z,6.47
2018-03-24T23:11:17.765Z,5.30
2018-03-24T23:13:46.017Z,12.73
2018-03-24T23:16:13.493Z,6.63
2018-03-24T23:18:40.997Z,5.90
2018-03-24T23:21:08.471Z,6.13
2018-03-24T23:23:36.716Z,5.87
2018-03-24T23:26:04.177Z,5.23
2018-03-24T23:28:31.669Z,5.60
2018-03-24T23:30:59.137Z,5.30
2018-03-24T23:33:26.803Z,6.30
2018-03-24T23:35:54.293Z,8.00
2018-03-24T23:38:21.773Z,7.67
2018-03-24T23:40:49.233Z,6.50
2018-03-24T23:43:16.794Z,6.23
2018-03-24T23:45:44.320Z,4.83
2018-03-24T23:48:11.793Z,5.77
2018-03-24T23:50:39.295Z,4.50
2018-03-24T23:53:06.780Z,5.17
2018-03-24T23:55:34.269Z,6.77
2018-03-24T23:58:01.736Z,4.63
